Tiempo atmosférico en la estación meteorológica de Teguise, Las Palmas (19 m.)



Fecha
DESCASC
Temp. máxima en grados centígrados (hora)
DESCASC
Temp. mínima en grados centígrados (hora)
DESCASC
Temp. media en grados centígrados
DESCASC
Racha de viento máxima en m/sg (hora)
DESCASC
Velocidad máxima media en intervalos de 10 minutos(hora)
DESCASC
Precipitaciones diarias en mm
DESCASC
Precipitaciones de 00:00 a 06:00 en mm
DESCASC
Precipitaciones de 06:00 a 12:00 en mm
DESCASC
Precipitaciones de 12:00 a 18:00 en mm
DESCASC
Precipitaciones de 18:00 a 24:00 en mm
DESCASC
13-06-2019 23.4 (11:40) 17.4 (23:10) 20.4 11.39 (12:00) 6.67 (11:50) 0 0 0 0 0
12-06-2019 23.2 (14:40) 17.1 (08:00) 20.2 -- (--) -- (--) 0.8 0 0.8 0 0
11-06-2019 24.4 (15:40) 18.8 (02:40) 21.6 -- (--) -- (--) 0 0 0 0 0
10-06-2019 24.5 (13:50) 19 (01:50) 21.8 -- (--) -- (--) 0 0 0 0 0
09-06-2019 23.6 (13:00) 18.3 (00:00) 20.9 -- (--) -- (--) 0 0 0 0 0
08-06-2019 24 (15:40) 18.1 (00:00) 21.1 -- (--) -- (--) 0 0 0 0 0
07-06-2019 24.5 (14:30) 18.4 (00:00) 21.4 -- (--) -- (--) 0 0 0 0 0
06-06-2019 23.9 (15:10) 18.7 (00:00) 21.3 13.06 (18:50) 8.33 (04:00) 0 0 0 0 0
05-06-2019 25.7 (14:00) 19 (00:00) 22.4 12.5 (18:30) 10 (18:30) 0 0 0 0 0
04-06-2019 25.4 (14:50) 17.6 (00:00) 21.5 10.28 (11:50) 6.67 (17:00) 0 0 0 0 0
03-06-2019 25.4 (14:50) 18.3 (00:00) 21.8 10.28 (11:20) 8.06 (00:50) 0 0 0 0 0
02-06-2019 25.5 (15:30) 18.9 (00:00) 22.2 17.22 (17:40) 10.56 (18:00) 0 0 0 0 0
01-06-2019 25.4 (11:50) 17.5 (00:00) 21.4 11.11 (16:20) 9.17 (15:20) 0 0 0 0 0
31-05-2019 23.5 (13:50) 18.7 (00:00) 21.1 6.39 (12:50) 4.17 (23:10) 0 0 0 0 0
30-05-2019 22.8 (14:30) 18.2 (00:00) 20.5 7.5 (16:30) 5 (16:10) 0 0 0 0 0
29-05-2019 23.2 (13:00) 18.2 (00:00) 20.7 8.89 (11:00) 5.83 (14:10) 0 0 0 0 0
28-05-2019 23.1 (15:30) 18.6 (00:00) 20.9 10.83 (12:50) 7.5 (13:00) 0 0 0 0 0
27-05-2019 24.8 (14:10) 17.8 (00:00) 21.3 10.83 (14:50) 7.78 (14:50) 0 0 0 0 0
26-05-2019 24.6 (15:30) 18.3 (00:00) 21.4 10.83 (18:10) 6.94 (16:50) 0 0 0 0 0
25-05-2019 24 (15:10) 18.4 (00:00) 21.2 14.17 (03:00) 10 (02:20) 0 0 0 0 0
24-05-2019 23.9 (14:50) 18.2 (00:00) 21.1 13.89 (15:20) 10.56 (09:40) 0 0 0 0 0
23-05-2019 22.9 (12:30) 18.3 (00:00) 20.6 14.17 (02:00) 10.28 (12:10) 1.2 0 1.2 0 0
22-05-2019 23.8 (13:50) 18.6 (00:00) 21.2 13.89 (22:40) 9.44 (10:40) 0 0 0 0 0
21-05-2019 23.5 (16:00) 18.2 (06:30) 20.9 12.22 (15:00) 9.17 (15:00) 0 0 0 0 0
20-05-2019 23.8 (13:20) 17.9 (08:40) 20.8 13.89 (08:30) 9.72 (08:20) 0 0 0 0 0
19-05-2019 23.6 (13:30) 18 (00:00) 20.8 14.72 (22:10) 10.28 (00:10) 0 0 0 0 0
18-05-2019 23.3 (15:00) 17.7 (00:00) 20.5 -- (--) -- (--) 0 0 0 0 0
17-05-2019 23.7 (13:50) 18.3 (00:00) 21 -- (--) -- (--) 0 0 0 0 0

Gráficas

Temp. máximas Temp. mínimas Temp. medias Precipitaciones Rachas de viento máximas Velocidades máximas media en intervalos de 10 minutos

Datos horarios

Fecha y hora oficial Temperatura (ºC) Velocidad del viento (km/h) Dirección del viento Racha (km/h) Dirección de racha Precipitación (mm) Presión (hPa) Tendencia (hPa) Humedad (%)
2019-06-15 23:00:00 19.1 12 Norte 21 Norte 0 1018.9 1.5 66
2019-06-15 22:00:00 19.2 14 Norte 22 Norte 0 1018.3 1.3 65
2019-06-15 21:00:00 19.3 15 Norte 24 Norte 0 1017.7 0.6 67
2019-06-15 20:00:00 20.6 18 Norte 28 Norte 0 1017.4 0.1 59
2019-06-15 19:00:00 21.5 21 Nordeste 30 Nordeste 0 1017 -0.5 56
2019-06-15 18:00:00 21.3 22 Nordeste 32 Nordeste 0 1017.1 -0.7 58
2019-06-15 17:00:00 23.2 22 Norte 35 Nordeste 0 1017.3 -0.6 51
2019-06-15 16:00:00 23.2 21 Nordeste 33 Nordeste 0 1017.5 -0.7 51
2019-06-15 15:00:00 23.7 21 Nordeste 33 Nordeste 0 1017.8 -0.8 51
2019-06-15 14:00:00 23.1 20 Norte 36 Nordeste 0 1017.9 -0.4 52
2019-06-15 13:00:00 22.7 20 Norte 32 Nordeste 0 1018.2 0.5 49
2019-06-15 12:00:00 24.1 19 Nordeste 32 Nordeste 0 1018.6 0.8 46
2019-06-15 11:00:00 23.1 23 Nordeste 31 Nordeste 0 1018.3 0.8 46
2019-06-15 10:00:00 22.3 20 Nordeste 31 Nordeste 0 1017.7 0.1 52
2019-06-15 09:00:00 21.1 22 Nordeste 32 Nordeste 0 1017.8 0.3 58
2019-06-15 08:00:00 19.6 23 Nordeste 31 Nordeste 0 1017.5 0.1 64
2019-06-15 07:00:00 17.7 17 Norte 24 Norte 0 1017.6 0.4 72
2019-06-15 06:00:00 18.1 17 Norte 26 Norte 0 1017.5 -0.1 70
2019-06-15 05:00:00 17.8 16 Norte 26 Nordeste 0 1017.4 -0.6 72
2019-06-15 04:00:00 18.8 18 Nordeste 24 Nordeste 0 1017.2 -1.4 71
2019-06-15 03:00:00 18.4 11 Norte 20 Norte 0 1017.6 -1.2 72
2019-06-15 02:00:00 17.7 15 Norte 20 Norte 0 1018 -0.9 72
2019-06-15 01:00:00 17.8 14 Nordeste 24 Nordeste 0 1018.6 0.4 70
2019-06-15 00:00:00 18.9 16 Nordeste 23 Nordeste 0 1018.8 0.9 69
2019-06-14 23:00:00 18.6 17 Norte 23 Norte 0 1018.9 1.2 70
2019-06-14 22:00:00 19.3 15 Nordeste 22 Norte 0 1018.2 1 69
2019-06-14 21:00:00 19.3 12 Norte 22 Norte 0 1017.9 1 66
2019-06-14 20:00:00 21.1 14 Norte 29 Nordeste 0 1017.7 0.7 60
2019-06-14 19:00:00 21.8 20 Nordeste 33 Nordeste 0 1017.2 0 50
2019-06-14 18:00:00 22.8 22 Nordeste 35 Nordeste 0 1016.9 -0.8 52
2019-06-14 17:00:00 23.4 23 Nordeste 35 Nordeste 0 1017 -1 42
2019-06-14 16:00:00 23.5 23 Norte 36 Nordeste 0 1017.2 -0.7 41
2019-06-14 15:00:00 23.4 20 Nordeste 33 Norte 0 1017.7 -0.4 43
2019-06-14 14:00:00 24 20 Nordeste 33 Nordeste 0 1018 0.2 45
2019-06-14 13:00:00 23.7 20 Nordeste 27 Nordeste 0 1017.9 0.2 50
2019-06-14 12:00:00 22.7 19 Nordeste 30 Nordeste 0 1018.1 0.9 53
2019-06-14 11:00:00 22.4 23 Nordeste 29 Nordeste 0 1017.8 1.3 58
2019-06-14 10:00:00 21.2 14 Noroeste 22 Norte 0 1017.7 1.6 62
2019-06-14 09:00:00 20.3 17 Norte 26 Norte 0 1017.2 1.5 63
2019-06-14 08:00:00 19.6 19 Norte 25 Norte 0 1016.5 1.1 66
2019-06-14 07:00:00 18.3 12 Norte 21 Norte 0 1016.1 0.8 71
2019-06-14 06:00:00 18.1 13 Norte 21 Norte 0 1015.7 -0.1 71
2019-06-14 05:00:00 18.2 13 Norte 26 Norte 0 1015.4 -0.7 70
2019-06-14 04:00:00 17.9 14 Norte 23 Norte 0 1015.3 -1.4 73
2019-06-14 03:00:00 17.1 11 Norte 18 Norte 0 1015.8 -1.2 74
2019-06-14 02:00:00 17 12 Norte 20 Norte 0 1016.1 -0.7 73
2019-06-14 01:00:00 17.8 12 Norte 19 Norte 0 1016.7 0.1 71
2019-06-14 00:00:00 18.1 13 Norte 19 Norte 0 1017 1.1 71
2019-06-13 23:00:00 17.5 11 Norte 19 Norte 0 1016.8 1.6 71
2019-06-13 22:00:00 18.8 8 Norte 21 Norte 0 1016.6 1.9 69
2019-06-13 21:00:00 19.4 13 Norte 24 Nordeste 0 1015.9 1.3 68
2019-06-13 20:00:00 20.5 15 Nordeste 28 Nordeste 0 1015.2 0.8 64
2019-06-13 19:00:00 21.3 19 Nordeste 26 Norte 0 1014.7 0.2 58
2019-06-13 18:00:00 21.9 17 Norte 28 Norte 0 1014.6 -0.1 58
2019-06-13 17:00:00 22 21 Nordeste 40 Nordeste 0 1014.4 -0.5 56
2019-06-13 16:00:00 22.1 21 Norte 36 Nordeste 0 1014.5 -0.2 62
2019-06-13 15:00:00 21.6 22 Norte 35 Nordeste 0 1014.7 0.4 61
2019-06-13 14:00:00 22.3 22 Norte 35 Nordeste 0 1014.9 1.1 60
2019-06-13 13:00:00 22.4 22 Nordeste 35 Nordeste 0 1014.7 0.9 57
2019-06-13 12:00:00 22.6 22 Norte 41 Nordeste 0 1014.3 1.2 57
2019-06-13 11:00:00 22.9 22 Norte 33 Nordeste 0 1013.8 1.3 56
2019-06-13 10:00:00 21.2 20 Norte 37 Norte 0 1013.8 1.9 62
2019-06-13 09:00:00 20.3 22 Norte 30 Norte 0 1013.1 1.5 68
2019-06-13 08:00:00 19 17 Norte 27 Norte 0 1012.5 1 74
2019-06-13 07:00:00 18.5 21 Norte 29 Norte 0 1011.9 0.2 74
2019-06-13 06:00:00 18.3 15 Norte 25 Norte 0 1011.6 -0.4 74
2019-06-13 05:00:00 18.6 17 Noroeste 29 Noroeste 0 1011.5 -0.8 73
2019-06-13 04:00:00 18.4 14 Norte 29 Noroeste 0 1011.7 -1.1 72
2019-06-13 03:00:00 18.9 21 Noroeste 30 Noroeste 0 1012 -1.1 70
2019-06-13 02:00:00 18.7 17 Norte 32 Norte 0 1012.3 -0.6 68
2019-06-13 01:00:00 18.8 19 Norte 29 Norte 0 1012.8 0.2 71
2019-06-13 00:00:00 18.1 14 Norte 29 Norte 0 1013.1 1 69
2019-06-12 23:00:00 18.4 16 Norte 38 Noroeste 0 1012.9 1.5 69
2019-06-12 22:00:00 19.2 25 Noroeste 35 Norte 0 1012.6 1.2 67
2019-06-12 21:00:00 19.4 18 Norte -- -- 0 1012.1 0.7 67
2019-06-12 20:00:00 19.9 25 Norte 36 Norte 0 1011.4 -0.4 66
2019-06-12 19:00:00 20.2 26 Noroeste 37 Norte 0 1011.4 -0.5 60
2019-06-12 18:00:00 21.5 30 Norte 40 Norte 0 1011.4 -0.7 57
2019-06-12 17:00:00 22.5 27 Noroeste 40 Norte 0 1011.8 -0.6 53
2019-06-12 16:00:00 21.4 25 Noroeste 40 Noroeste 0 1011.9 -0.6 60
2019-06-12 15:00:00 22 22 Noroeste 36 Norte 0 1012.1 -0.2 57
2019-06-12 14:00:00 21.5 27 Norte 41 Norte 0 1012.4 0.3 63
2019-06-12 13:00:00 21.4 27 Norte 41 Nordeste 0 1012.5 0.4 66
2019-06-12 12:00:00 19.9 24 Norte 40 Norte 0.2 1012.3 0.6 75
2019-06-12 11:00:00 19.6 24 Norte 36 Norte 0 1012.1 0.8 82
2019-06-12 10:00:00 20.1 21 Norte 40 Norte 0 1012.1 0.9 75
2019-06-12 09:00:00 19.1 22 Norte 44 Norte 0 1011.7 0.7 84
2019-06-12 08:00:00 17.2 32 Norte 46 Norte 0.6 1011.3 0.2 91
2019-06-12 07:00:00 19.1 21 Norte 40 Norte 0 1011.2 -0.1 78
2019-06-12 06:00:00 18.8 24 Norte 36 Norte 0 1011 -0.5 81
2019-06-12 05:00:00 18.4 26 Norte 38 Norte 0 1011.1 -1 89
2019-06-12 04:00:00 18.2 -- -- -- -- 0 1011.3 -1.2 90
2019-06-12 03:00:00 18.7 21 Norte 44 Norte 0 1011.5 -1.4 88
2019-06-12 02:00:00 19.2 25 Norte 42 Norte 0 1012.1 -1 84
2019-06-12 01:00:00 19.5 29 Norte -- -- 0 1012.5 -0.8 77
2019-06-12 00:00:00 19.9 -- -- -- -- 0 1012.9 -0.3 77
2019-06-11 23:00:00 19.7 30 Norte 44 Norte 0 1013.1 0.1 79
2019-06-11 22:00:00 20 23 Norte 40 Norte 0 1013.3 0.3 77
2019-06-11 21:00:00 20.2 27 Norte 50 Norte 0 1013.2 0.1 77
2019-06-11 20:00:00 20.6 25 Norte 47 Norte 0 1013 -0.4 71
2019-06-11 19:00:00 21 26 Norte 40 Norte 0 1013 -0.9 69
2019-06-11 18:00:00 21.6 28 Norte 41 Norte 0 1013.1 -1.2 67
2019-06-11 17:00:00 22.8 30 Norte 42 Norte 0 1013.4 -1.3 62
2019-06-11 16:00:00 23 26 Norte 47 Norte 0 1013.9 -1.1 59
2019-06-11 15:00:00 24.1 26 Norte 42 Norte 0 1014.3 -0.6 54
2019-06-11 14:00:00 23.4 27 Norte 41 Norte 0 1014.7 -0.1 58
2019-06-11 13:00:00 23.6 26 Nordeste 42 Nordeste 0 1015 0.2 55
2019-06-11 12:00:00 23.2 27 Norte 47 Nordeste 0 1014.9 -0.1 55
2019-06-11 11:00:00 22.8 31 Nordeste 45 Norte 0 1014.8 0.1 53
2019-06-11 10:00:00 20.9 28 Norte -- -- 0 1014.8 0.4 57
2019-06-11 09:00:00 19.9 -- -- -- -- 0 1015 0.8 68
2019-06-11 08:00:00 19.6 23 Norte 40 Nordeste 0 1014.7 -0.1 63
2019-06-11 07:00:00 19.2 24 Norte 46 Norte 0 1014.4 -0.7 67
2019-06-11 06:00:00 19.3 27 Norte 39 Norte 0 1014.2 -1.3 68
2019-06-11 05:00:00 19.3 25 Norte 44 Norte 0 1014.8 -1.5 71
2019-06-11 04:00:00 19.1 26 Norte 43 Norte 0 1015.1 -1.8 68
2019-06-11 03:00:00 19 24 Norte 41 Norte 0 1015.5 -1.6 71
2019-06-11 02:00:00 19 23 Norte 40 Nordeste 0 1016.3 -1.1 74
2019-06-11 01:00:00 19.1 23 Norte 41 Norte 0 1016.9 -0.3 73
2019-06-11 00:00:00 19.4 24 Norte -- -- 0 1017.1 0.4 73
2019-06-10 23:00:00 19 22 Norte 45 Norte 0 1017.4 0.9 73
2019-06-10 22:00:00 19.2 22 Norte 39 Norte 0 1017.2 0.6 74
2019-06-10 21:00:00 19.6 28 Norte 48 Nordeste 0 1016.7 -0.2 74
2019-06-10 20:00:00 20.6 28 Norte 43 Nordeste 0 1016.5 -0.9 71
2019-06-10 19:00:00 22.1 26 Norte 42 Norte 0 1016.6 -1.3 62
2019-06-10 18:00:00 22.6 26 Norte 46 Norte 0 1016.9 -1.4 62
2019-06-10 17:00:00 23.3 29 Norte 43 Norte 0 1017.4 -1.2 58
2019-06-10 16:00:00 23.6 25 Norte 38 Norte 0 1017.9 -1.1 57
2019-06-10 15:00:00 23.9 24 Norte 42 Norte 0 1018.3 -0.9 59
2019-06-10 14:00:00 24 25 Norte 44 Nordeste 0 1018.6 -0.7 58
2019-06-10 13:00:00 24.2 26 Norte 45 Norte 0 1019 -0.3 56
2019-06-10 12:00:00 23.7 25 Norte 46 Nordeste 0 1019.2 -0.2 57
2019-06-10 11:00:00 22.4 19 Norte 36 Norte 0 1019.3 0.2 64
2019-06-10 10:00:00 22.1 26 Norte 42 Norte 0 1019.3 0.5 64
2019-06-10 09:00:00 20.2 -- -- -- -- 0 1019.4 0.5 68
2019-06-10 08:00:00 19.5 28 Norte 36 Norte 0 1019.1 0.1 70
2019-06-10 07:00:00 19.4 24 Norte 41 Norte 0 1018.8 -0.5 70
2019-06-10 06:00:00 19.2 28 Norte 44 Norte 0 1018.9 -0.7 70
2019-06-10 05:00:00 19.4 23 Norte 39 Norte 0 1019 -1.1 74
2019-06-10 04:00:00 19.2 26 Norte 39 Norte 0 1019.3 -1.5 70
2019-06-10 03:00:00 19.1 26 Norte 38 Norte 0 1019.6 -1.4 69
2019-06-10 02:00:00 19 27 Nordeste 41 Norte 0 1020.1 -0.6 69
2019-06-10 01:00:00 19.2 27 Norte 41 Norte 0 1020.8 0.6 70
2019-06-10 00:00:00 19.4 26 Nordeste 47 Norte 0 1021 0.9 69
2019-06-09 23:00:00 19.7 25 Norte 45 Nordeste 0 1020.7 0.8 71
2019-06-09 22:00:00 19.8 32 Norte 41 Nordeste 0 1020.2 0.5 68
2019-06-09 21:00:00 19.9 30 Norte 41 Norte 0 1020.1 0.3 68
2019-06-09 20:00:00 20.4 28 Norte 43 Nordeste 0 1019.9 -0.3 64
2019-06-09 19:00:00 21.1 33 Norte 45 Norte 0 1019.7 -0.8 59
2019-06-09 18:00:00 21.9 31 Norte 43 Nordeste 0 1019.8 -0.7 55
2019-06-09 17:00:00 22.6 32 Nordeste 44 Nordeste 0 1020.2 -0.5 51
2019-06-09 16:00:00 22.8 31 Nordeste 45 Nordeste 0 1020.5 -0.5 50
2019-06-09 15:00:00 23.1 30 Nordeste 42 Nordeste 0 1020.5 -0.5 52
2019-06-09 14:00:00 22.7 26 Norte 42 Norte 0 1020.7 0 54
2019-06-09 13:00:00 22.3 30 Nordeste 42 Norte 0 1021 0.2 51
2019-06-09 12:00:00 21.9 31 Norte 49 Nordeste 0 1021 0.4 52
2019-06-09 11:00:00 21.2 30 Nordeste 41 Norte 0 1020.7 0.4 55
2019-06-09 10:00:00 20.5 26 Nordeste 37 Nordeste 0 1020.8 1 58
2019-06-09 09:00:00 20 18 Norte 36 Nordeste 0 1020.6 1 54
2019-06-09 08:00:00 19.3 25 Nordeste 36 Nordeste 0 1020.3 0.9 60
2019-06-09 07:00:00 19.1 20 Nordeste 29 Norte 0 1019.8 0.2 63
2019-06-09 06:00:00 19 17 Norte 35 Norte 0 1019.6 -0.2 62
2019-06-09 05:00:00 19 21 Norte 34 Norte 0 1019.4 -0.7 69
2019-06-09 04:00:00 19.2 25 Norte -- -- 0 1019.6 -0.8 61
2019-06-09 03:00:00 19.2 -- -- -- -- 0 1019.8 -0.9 65
2019-06-09 02:00:00 18.9 19 Norte 34 Nordeste 0 1020.1 -0.2 70
2019-06-09 01:00:00 18.5 23 Norte 34 Norte 0 1020.4 0.5 66
2019-06-09 00:00:00 18.6 21 Norte 38 Norte 0 1020.7 1 69
2019-06-08 23:00:00 19 27 Norte 39 Norte 0 1020.3 0.8 68
2019-06-08 22:00:00 18.9 -- -- -- -- 0 1019.9 0.9 69
2019-06-08 21:00:00 19.2 22 Norte 33 Nordeste 0 1019.7 0.9 64
2019-06-08 20:00:00 20.2 24 Norte 36 Nordeste 0 1019.5 0.7 61
2019-06-08 19:00:00 20.9 22 Norte 38 Nordeste 0 1019 0.1 59
2019-06-08 18:00:00 22.6 24 Norte 39 Nordeste 0 1018.8 -0.3 52
2019-06-08 17:00:00 22.8 25 Norte 42 Nordeste 0 1018.8 -0.4 51
2019-06-08 16:00:00 23.1 27 Norte 42 Norte 0 1018.9 -0.4 52
2019-06-08 15:00:00 23.4 29 Nordeste 41 Norte 0 1019.1 -0.3 53
2019-06-08 14:00:00 23.6 27 Nordeste 39 Norte 0 1019.2 0.3 53
2019-06-08 13:00:00 23 24 Norte 36 Nordeste 0 1019.3 1 55
2019-06-08 12:00:00 22.9 24 Norte 39 Norte 0 1019.4 1.1 51
2019-06-08 11:00:00 22.6 25 Nordeste 37 Nordeste 0 1018.9 1.1 54
2019-06-08 10:00:00 21.4 29 Nordeste 37 Nordeste 0 1018.3 0.7 60
2019-06-08 09:00:00 20.8 26 Norte -- -- 0 1018.3 0.9 63
2019-06-08 08:00:00 19.3 25 Norte -- -- 0 1017.8 0.8 70
2019-06-08 07:00:00 18.8 -- -- -- -- 0 1017.6 0.5 77
2019-06-08 06:00:00 18.3 18 Norte -- -- 0 1017.4 0.3 79
2019-06-08 05:00:00 19 19 Norte 31 Norte 0 1017 -0.1 79
2019-06-08 04:00:00 19.1 21 Norte -- -- 0 1017.1 -0.2 82
2019-06-08 03:00:00 19.1 23 Nordeste 36 Nordeste 0 1017.1 -0.4 83
2019-06-08 02:00:00 19.2 21 Nordeste 35 Nordeste 0 1017.1 -0.6 85
2019-06-08 01:00:00 19.4 24 Norte 35 Norte 0 1017.3 0.2 85
2019-06-08 00:00:00 19.4 22 Norte 33 Norte 0 1017.5 0.9 84
2019-06-07 23:00:00 19.8 21 Norte 31 Norte 0 1017.7 1.1 83
2019-06-07 22:00:00 20 20 Norte 30 Norte 0 1017.1 0.9 84
2019-06-07 21:00:00 20.5 18 Norte 29 Noroeste 0 1016.6 0.5 81
2019-06-07 20:00:00 21.1 17 Norte 28 Norte 0 1016.6 0.4 76
2019-06-07 19:00:00 22.1 19 Norte 31 Noroeste 0 1016.2 0 73
2019-06-07 18:00:00 23.3 17 Noroeste 34 Norte 0 1016.1 -0.5 63
2019-06-07 17:00:00 23.6 20 Noroeste 29 Norte 0 1016.2 -0.3 60
2019-06-07 16:00:00 23.2 18 Noroeste 29 Norte 0 1016.2 -0.6 64
2019-06-07 15:00:00 23.5 19 Norte 35 Nordeste 0 1016.6 -0.1 58
2019-06-07 14:00:00 24 23 Norte 34 Norte 0 1016.5 0.3 58
2019-06-07 13:00:00 21.8 23 Nordeste 36 Nordeste 0 1016.8 0.9 64
2019-06-07 12:00:00 22.1 22 Norte 35 Nordeste 0 1016.7 1.1 61
2019-06-07 11:00:00 21.7 24 Norte 34 Nordeste 0 1016.2 0.8 66
2019-06-07 10:00:00 20.8 23 Nordeste 37 Nordeste 0 1015.9 0.8 67
2019-06-07 09:00:00 20.2 25 Norte 34 Norte 0 1015.6 0.9 67
2019-06-07 08:00:00 19.2 19 Norte -- -- 0 1015.4 0.9 72
2019-06-07 07:00:00 18.7 -- -- -- -- 0 1015.1 0.4 76
2019-06-07 06:00:00 18.7 22 Norte 31 Nordeste 0 1014.7 -0.4 76
2019-06-07 05:00:00 18.5 14 Norte 26 Norte 0 1014.5 -1.1 74
2019-06-07 04:00:00 18.8 14 Norte 27 Norte 0 1014.7 -1.3 75
2019-06-07 03:00:00 18.9 19 Norte 31 Norte 0 1015.1 -1 73
2019-06-07 02:00:00 18.9 21 Norte 35 Norte 0 1015.6 -0.3 70
2019-06-07 01:00:00 18.8 21 Norte 36 Norte 0 1016 0.3 69
2019-06-07 00:00:00 18.8 21 Norte 31 Norte 0 1016.1 0.8 69
2019-06-06 23:00:00 18.7 22 Norte 33 Norte 0 1015.9 0.9 72
2019-06-06 22:00:00 19.1 25 Norte 34 Norte 0 1015.7 1 70
2019-06-06 21:00:00 19.2 19 Norte 36 Norte 0 1015.3 0.4 66
2019-06-06 20:00:00 20.3 22 Norte 39 Norte 0 1015 0.2 61
2019-06-06 19:00:00 21.7 23 Norte 47 Norte 0 1014.7 -0.2 56
2019-06-06 18:00:00 21.9 26 Norte 37 Noroeste 0 1014.9 -0.1 52
2019-06-06 17:00:00 23.3 25 Norte 41 Norte 0 1014.8 -0.7 49
2019-06-06 16:00:00 22.5 25 Norte 43 Norte 0 1014.9 -0.9 51
2019-06-06 15:00:00 23.5 27 Norte 39 Norte 0 1015 -0.7 47
2019-06-06 14:00:00 20.8 20 Norte 34 Norte 0 1015.5 0.2 61
2019-06-06 13:00:00 20.7 25 Norte 37 Norte 0 1015.8 0.6 60
2019-06-06 12:00:00 20.8 26 Norte 34 Norte 0 1015.7 0.7 58
2019-06-06 11:00:00 21 23 Norte 37 Norte 0 1015.3 0.9 55
2019-06-06 10:00:00 19.6 25 Norte 36 Norte 0 1015.2 0.9 63
2019-06-06 09:00:00 19.4 25 Norte 39 Norte 0 1015 1 67
2019-06-06 08:00:00 19.6 22 Norte 40 Norte 0 1014.4 0.4 60
2019-06-06 07:00:00 19.1 28 Norte 42 Norte 0 1014.3 0.4 68
2019-06-06 06:00:00 19.1 28 Norte 42 Norte 0 1014 -0.5 70
2019-06-06 05:00:00 19 27 Norte 40 Norte 0 1014 -1.2 71
2019-06-06 04:00:00 19.1 30 Norte 41 Norte 0 1013.9 -2 70
2019-06-06 03:00:00 18.9 26 Norte 38 Norte 0 1014.5 -1.9 65
2019-06-06 02:00:00 19.4 24 Nordeste 35 Nordeste 0 1015.2 -1.3 64
2019-06-06 01:00:00 19.6 24 Norte 31 Norte 0 1015.9 -0.1 69
2019-06-06 00:00:00 19.4 19 Norte 35 Norte 0 1016.4 1.2 70
2019-06-05 23:00:00 19.3 24 Norte 35 Norte 0 1016.5 1.6 68
2019-06-05 22:00:00 19.5 26 Norte 36 Norte 0 1016 1.2 72
2019-06-05 21:00:00 19.6 26 Norte 41 Norte 0 1015.2 0.3 75
2019-06-05 20:00:00 20.6 31 Norte 44 Norte 0 1014.9 -0.3 69
2019-06-05 19:00:00 21.4 34 Norte 45 Nordeste 0 1014.8 -0.6 69
2019-06-05 18:00:00 21.9 34 Norte 45 Nordeste 0 1014.9 -0.7 72
2019-06-05 17:00:00 22.6 30 Norte 42 Nordeste 0 1015.2 -0.8 70
2019-06-05 16:00:00 23.3 30 Norte 42 Norte 0 1015.4 -0.7 70
2019-06-05 15:00:00 23.8 24 Nordeste 35 Norte 0 1015.6 -0.8 67
2019-06-05 14:00:00 25 21 Nordeste 32 Nordeste 0 1016 -0.3 60
2019-06-05 13:00:00 24.3 21 Norte 35 Norte 0 1016.1 -0.3 62
2019-06-05 12:00:00 23 23 Nordeste 33 Norte 0 1016.4 0.4 67
2019-06-05 11:00:00 23.5 17 Norte 33 Norte 0 1016.3 0.3 61
2019-06-05 10:00:00 22.7 22 Norte 34 Norte 0 1016.4 0.6 68
2019-06-05 09:00:00 21.6 22 Norte 30 Nordeste 0 1016 0.6 77
2019-06-05 08:00:00 20.1 23 Norte 30 Nordeste 0 1016 0.6 82
2019-06-05 07:00:00 19.4 19 Norte 30 Norte 0 1015.8 0.2 85
2019-06-05 06:00:00 19.4 19 Norte 34 Norte 0 1015.4 -0.6 85
2019-06-05 05:00:00 19.6 21 Norte 36 Norte 0 1015.4 -1.4 84
2019-06-05 04:00:00 19.6 19 Norte 29 Norte 0 1015.6 -1.7 85
2019-06-05 03:00:00 19.5 19 Norte 30 Norte 0 1016 -1.5 84
2019-06-05 02:00:00 19.7 14 Norte 28 Norte 0 1016.8 -0.5 85
2019-06-05 01:00:00 19.6 13 Norte 22 Norte 0 1017.3 0.4 85
2019-06-05 00:00:00 19.5 12 Norte 21 Norte 0 1017.5 1.2 84
2019-06-04 23:00:00 19.5 13 Norte 21 Norte 0 1017.3 1.3 83
2019-06-04 22:00:00 19.8 14 Norte 28 Norte 0 1016.9 1.1 82
2019-06-04 21:00:00 20.2 13 Norte 24 Norte 0 1016.3 0.6 79
2019-06-04 20:00:00 21.3 19 Norte 30 Norte 0 1016 0 72
2019-06-04 19:00:00 22.4 17 Norte 29 Nordeste 0 1015.8 -0.5 68
2019-06-04 18:00:00 23.3 17 Norte 30 Nordeste 0 1015.7 -0.8 65
2019-06-04 17:00:00 23.6 24 Nordeste 35 Nordeste 0 1016 -0.9 63
2019-06-04 16:00:00 23.3 23 Nordeste 36 Nordeste 0 1016.3 -0.8 64
2019-06-04 15:00:00 23.5 23 Nordeste 33 Nordeste 0 1016.5 -0.4 65
2019-06-04 14:00:00 24.2 21 Nordeste 33 Norte 0 1016.9 0.4 64
2019-06-04 13:00:00 24 21 Norte 31 Nordeste 0 1017.1 1 65
2019-06-04 12:00:00 24 20 Nordeste 37 Nordeste 0 1016.9 1.3 67
2019-06-04 11:00:00 22.6 18 Norte 28 Norte 0 1016.5 1.3 72
2019-06-04 10:00:00 23.2 14 Norte 26 Norte 0 1016.1 1.6 72
2019-06-04 09:00:00 21.5 15 Norte 25 Norte 0 1015.6 1.7 78
2019-06-04 08:00:00 19.8 5 Nordeste 10 Nordeste 0 1015.2 1.4 86
2019-06-04 07:00:00 17.8 4 Nordeste 14 Nordeste 0 1014.5 0.7 90
2019-06-04 06:00:00 18 4 Este 7 Este 0 1013.9 -0.4 88
2019-06-04 05:00:00 18.8 3 Oeste 13 Este 0 1013.8 -1.1 88
2019-06-04 04:00:00 19.1 4 Sudeste 19 Este 0 1013.8 -1.7 87
2019-06-04 03:00:00 19.4 4 Norte 14 Nordeste 0 1014.3 -1.5 88
2019-06-04 02:00:00 19.7 5 Nordeste 19 Nordeste 0 1014.9 -0.6 89
2019-06-04 01:00:00 19.6 13 Nordeste 19 Nordeste 0 1015.5 0.9 89
2019-06-04 00:00:00 19.6 12 Nordeste 20 Norte 0 1015.8 1.8 87
2019-06-03 23:00:00 19.8 11 Nordeste 21 Nordeste 0 1015.5 1.8 86
2019-06-03 22:00:00 20.2 13 Norte 27 Norte 0 1014.6 1.4 84
2019-06-03 21:00:00 20.8 20 Norte 27 Norte 0 1014 0.6 81
2019-06-03 20:00:00 22.2 20 Norte 35 Norte 0 1013.7 0.1 72
2019-06-03 19:00:00 23.4 25 Norte 35 Norte 0 1013.2 -0.4 67
2019-06-03 18:00:00 24.5 17 Norte 37 Norte 0 1013.4 -0.3 65
2019-06-03 17:00:00 24.7 20 Norte 31 Nordeste 0 1013.6 -0.1 67
2019-06-03 16:00:00 25 17 Nordeste 29 Nordeste 0 1013.6 -0.5 66
2019-06-03 15:00:00 25 21 Nordeste 32 Nordeste 0 1013.7 -0.2 66
2019-06-03 14:00:00 25 23 Nordeste 37 Nordeste 0 1013.7 0 67
2019-06-03 13:00:00 24.3 23 Nordeste 34 Nordeste 0 1014.1 0.6 69
2019-06-03 12:00:00 23.1 24 Nordeste 37 Nordeste 0 1013.9 0.7 73
2019-06-03 11:00:00 22.9 27 Nordeste 34 Nordeste 0 1013.7 0.9 75
2019-06-03 10:00:00 22.5 18 Norte 28 Norte 0 1013.5 1.2 78
2019-06-03 09:00:00 21.5 16 Nordeste 22 Nordeste 0 1013.2 1.1 84
2019-06-03 08:00:00 19.9 12 Nordeste 26 Norte 0 1012.8 0.7 91
2019-06-03 07:00:00 19 11 Nordeste 20 Norte 0 1012.3 -0.2 90
2019-06-03 06:00:00 18.7 8 Norte 15 Norte 0 1012.1 -0.7 90
2019-06-03 05:00:00 18.6 5 Nordeste 12 Norte 0 1012.1 -0.8 90
2019-06-03 04:00:00 19.6 10 Norte 19 Nordeste 0 1012.5 -0.6 87
2019-06-03 03:00:00 19 9 Nordeste 26 Nordeste 0 1012.8 -0.2 87
2019-06-03 02:00:00 19.6 22 Nordeste 33 Nordeste 0 1012.9 0.3 86
2019-06-03 01:00:00 20.4 27 Nordeste 36 Nordeste 0 1013.1 1.2 82
2019-06-03 00:00:00 20.1 26 Nordeste 34 Nordeste 0 1013 1.9 82
2019-06-02 23:00:00 20.2 30 Nordeste 40 Nordeste 0 1012.6 1.9 87
2019-06-02 22:00:00 20.4 32 Nordeste 40 Nordeste 0 1011.9 1.8 88
2019-06-02 21:00:00 20.7 26 Nordeste 36 Nordeste 0 1011.1 1.6 86
2019-06-02 20:00:00 21.8 27 Nordeste 40 Nordeste 0 1010.7 0.7 80
2019-06-02 19:00:00 23.5 30 Nordeste 47 Nordeste 0 1010.1 -0.2 66
2019-06-02 18:00:00 22.6 38 Nordeste 62 Este 0 1009.5 -1.4 74
2019-06-02 17:00:00 23.5 33 Nordeste 44 Nordeste 0 1010 -1.5 71
2019-06-02 16:00:00 25.2 36 Nordeste 44 Nordeste 0 1010.3 -1.6 65
2019-06-02 15:00:00 24.8 27 Nordeste 37 Nordeste 0 1010.9 -1.2 68
2019-06-02 14:00:00 25.1 28 Nordeste 39 Nordeste 0 1011.5 -0.4 67
2019-06-02 13:00:00 24.1 25 Nordeste 38 Nordeste 0 1011.9 -0.1 68
2019-06-02 12:00:00 23.7 26 Nordeste 35 Nordeste 0 1012.1 0.3 72
2019-06-02 11:00:00 22.5 26 Nordeste 35 Nordeste 0 1011.9 0.4 76
2019-06-02 10:00:00 21.4 24 Nordeste 32 Nordeste 0 1012 0.9 81
2019-06-02 09:00:00 21.2 8 Nordeste 12 Nordeste 0 1011.8 0.8 85
2019-06-02 08:00:00 19.6 8 Sur 11 Sur 0 1011.5 1.1 99
2019-06-02 07:00:00 19.1 7 Sur 12 Sur 0 1011.1 0.8 97
2019-06-02 06:00:00 19.1 5 Sudoeste 9 Sur 0 1011 0.3 97
2019-06-02 05:00:00 19.2 4 Oeste 12 Oeste 0 1010.4 -0.9 98
2019-06-02 04:00:00 19.3 4 Oeste 12 Oeste 0 1010.3 -1.6 98
2019-06-02 03:00:00 19.5 8 Sudoeste 13 Oeste 0 1010.7 -1.2 95
2019-06-02 02:00:00 19.4 7 Oeste 14 Noroeste 0 1011.3 -0.4 94
2019-06-02 01:00:00 19.5 9 Sudoeste 15 Noroeste 0 1011.9 0.7 90
2019-06-02 00:00:00 20.7 6 Sudeste 22 Nordeste 0 1011.9 1.3 80
2019-06-01 23:00:00 21.2 17 Nordeste 28 Nordeste 0 1011.7 1.9 80
2019-06-01 22:00:00 21 19 Nordeste 25 Nordeste 0 1011.2 2.3 84
2019-06-01 21:00:00 21.6 17 Nordeste 21 Nordeste 0 1010.6 2 81
2019-06-01 20:00:00 23 12 Nordeste 27 Nordeste 0 1009.8 0.9 76
2019-06-01 19:00:00 23.1 22 Nordeste 37 Nordeste 0 1008.9 -0.7 78
2019-06-01 18:00:00 24.3 29 Nordeste 36 Nordeste 0 1008.6 -1.7 71
2019-06-01 17:00:00 24.6 31 Nordeste 40 Nordeste 0 1008.9 -1.7 69
2019-06-01 16:00:00 24.4 33 Nordeste 39 Nordeste 0 1009.6 -1.5 71
2019-06-01 15:00:00 24.9 31 Nordeste 39 Nordeste 0 1010.3 -1.3 69
2019-06-01 14:00:00 24.5 29 Nordeste 35 Nordeste 0 1010.6 -0.9 70
2019-06-01 13:00:00 24.8 24 Nordeste 31 Nordeste 0 1011.1 -0.3 68
2019-06-01 12:00:00 24.9 15 Nordeste 23 Nordeste 0 1011.6 0.4 65
2019-06-01 11:00:00 24.2 12 Nordeste 26 Nordeste 0 1011.5 0.7 68
2019-06-01 10:00:00 22 5 Sudeste 9 Este 0 1011.4 1.1 77
2019-06-01 09:00:00 20 4 Sur 7 Sur 0 1011.2 1 85
2019-06-01 08:00:00 19.4 3 Sur 6 Norte 0 1010.8 0.7 87
2019-06-01 07:00:00 19 3 Noroeste 11 Norte 0 1010.3 0.3 87
2019-06-01 06:00:00 19 5 Noroeste 11 Oeste 0 1010.2 0.2 87
2019-06-01 05:00:00 19.1 6 Oeste 14 Noroeste 0 1010.1 -0.6 87
2019-06-01 04:00:00 18.9 8 Sudoeste 11 Sudoeste 0 1010 -1.1 88
2019-06-01 03:00:00 17.8 4 Sur 8 Sudoeste 0 1010 -1.9 90
2019-06-01 02:00:00 17.9 6 Sudoeste 11 Sudoeste 0 1010.7 -1.4 88
2019-06-01 01:00:00 18.7 5 Oeste 14 Norte 0 1011.1 -0.4 84
2019-06-01 00:00:00 19.5 11 Nordeste 20 Nordeste 0 1011.9 1 83
2019-05-31 23:00:00 19.8 12 Nordeste 17 Nordeste 0 1012.1 1.9 83
2019-05-31 22:00:00 19.9 9 Norte 14 Norte 0 1011.5 1.2 81
2019-05-31 21:00:00 20.1 8 Noroeste 17 Noroeste 0 1010.9 0.3 81
2019-05-31 20:00:00 20.2 10 Noroeste 19 Noroeste 0 1010.2 -1 81
2019-05-31 19:00:00 20.4 13 Noroeste 19 Noroeste 0 1010.3 -1 79
2019-05-31 18:00:00 20.9 11 Oeste 19 Noroeste 0 1010.6 -1 77
2019-05-31 17:00:00 21 12 Oeste 22 Oeste 0 1011.2 -0.8 77
2019-05-31 16:00:00 21.9 12 Oeste 23 Oeste 0 1011.3 -0.8 71
2019-05-31 15:00:00 22.4 10 Oeste 21 Oeste 0 1011.6 -1.3 68
2019-05-31 14:00:00 22.7 12 Noroeste 22 Oeste 0 1012 -0.5 66
2019-05-31 13:00:00 22.8 15 Oeste 23 Oeste 0 1012.1 0.2 66
2019-05-31 12:00:00 21.2 8 Oeste 15 Noroeste 0 1012.9 1.5 73
2019-05-31 11:00:00 20.7 10 Oeste 15 Noroeste 0 1012.5 0.9 76
2019-05-31 10:00:00 20.1 8 Sudoeste 18 Sudoeste 0 1011.9 1 78
2019-05-31 09:00:00 19.5 10 Oeste 17 Oeste 0 1011.4 0.6 80
2019-05-31 08:00:00 18.9 13 Oeste 18 Oeste 0 1011.6 0.6 82
2019-05-31 07:00:00 18.9 12 Sudoeste 18 Sudoeste 0 1010.9 -0.6 83
2019-05-31 06:00:00 18.7 11 Sudoeste 16 Sudoeste 0 1010.8 -1.3 84
2019-05-31 05:00:00 18.7 9 Sudoeste 13 Sudoeste 0 1011 -1.8 83
2019-05-31 04:00:00 18.8 8 Oeste 13 Noroeste 0 1011.5 -1.8 81
2019-05-31 03:00:00 18.9 6 Oeste 14 Oeste 0 1012.1 -1.7 81
2019-05-31 02:00:00 18.9 8 Oeste 14 Oeste 0 1012.8 -0.9 81
2019-05-31 01:00:00 18.9 9 Oeste 15 Oeste 0 1013.3 -0.1 82
2019-05-31 00:00:00 19.2 10 Oeste 16 Oeste 0 1013.8 1 81
2019-05-30 23:00:00 19.2 9 Sudoeste 17 Oeste 0 1013.7 1.3 81
2019-05-30 22:00:00 19.5 10 Oeste 19 Oeste 0 1013.4 1.2 81
2019-05-30 21:00:00 19.7 13 Oeste 22 Oeste 0 1012.8 0.5 79
2019-05-30 20:00:00 20 12 Oeste 21 Oeste 0 1012.4 -0.4 77
2019-05-30 19:00:00 20.6 17 Oeste 27 Oeste 0 1012.2 -0.8 75
2019-05-30 18:00:00 21.3 15 Oeste 24 Oeste 0 1012.3 -1 72
2019-05-30 17:00:00 21.6 17 Oeste 27 Sudoeste 0 1012.8 -0.7 69
2019-05-30 16:00:00 22.1 17 Oeste 27 Oeste 0 1013 -0.8 66
2019-05-30 15:00:00 22.1 15 Oeste 24 Oeste 0 1013.3 -0.5 66
2019-05-30 14:00:00 22.1 13 Oeste 24 Oeste 0 1013.5 -0.3 66
2019-05-30 13:00:00 21.4 12 Oeste 19 Oeste 0 1013.8 0.4 70
2019-05-30 12:00:00 20.8 13 Oeste 20 Noroeste 0 1013.8 0.5 72
2019-05-30 11:00:00 20 11 Oeste 18 Oeste 0 1013.8 1.1 75
2019-05-30 10:00:00 19.6 11 Noroeste 17 Oeste 0 1013.4 1 77
2019-05-30 09:00:00 19.1 13 Noroeste 20 Oeste 0 1013.3 1.3 78
2019-05-30 08:00:00 18.6 10 Oeste 18 Noroeste 0 1012.7 0.7 81
2019-05-30 07:00:00 18.3 11 Noroeste 20 Noroeste 0 1012.4 -0.2 81
2019-05-30 06:00:00 18.3 11 Noroeste 18 Noroeste 0 1012 -1 79
2019-05-30 05:00:00 18.2 8 Noroeste 18 Noroeste 0 1012 -1.6 80
2019-05-30 04:00:00 18.3 8 Noroeste 15 Oeste 0 1012.6 -1.5 80
2019-05-30 03:00:00 18.3 10 Noroeste 19 Noroeste 0 1013 -1.9 79
2019-05-30 02:00:00 18.5 8 Noroeste 16 Noroeste 0 1013.6 -1.1 79
2019-05-30 01:00:00 18.6 9 Norte 21 Norte 0 1014.1 0.2 79
2019-05-30 00:00:00 18.7 9 Norte 18 Noroeste 0 1014.9 1.4 78
2019-05-29 23:00:00 18.7 12 Norte 23 Norte 0 1014.7 1.5 77
2019-05-29 22:00:00 18.9 10 Noroeste 22 Noroeste 0 1013.9 1 78
2019-05-29 21:00:00 19.1 12 Noroeste 24 Noroeste 0 1013.5 0.7 77
2019-05-29 20:00:00 19.4 13 Noroeste 23 Noroeste 0 1013.2 0.2 74
2019-05-29 19:00:00 20.1 14 Noroeste 26 Noroeste 0 1012.9 -0.2 73
2019-05-29 18:00:00 20.8 13 Oeste 24 Noroeste 0 1012.8 -0.8 70
2019-05-29 17:00:00 21.6 18 Noroeste 26 Noroeste 0 1013 -1 66
2019-05-29 16:00:00 22.1 16 Noroeste 27 Oeste 0 1013.1 -1.2 64
2019-05-29 15:00:00 22.4 19 Noroeste 30 Oeste 0 1013.6 -0.9 64
2019-05-29 14:00:00 22.8 19 Oeste 28 Oeste 0 1014 -0.3 61
2019-05-29 13:00:00 22.8 17 Noroeste 28 Norte 0 1014.3 0.1 60
2019-05-29 12:00:00 21.9 16 Noroeste 27 Noroeste 0 1014.5 0.6 64
2019-05-29 11:00:00 20.8 13 Noroeste 32 Noroeste 0 1014.3 0.8 67
2019-05-29 10:00:00 19.9 10 Noroeste 21 Norte 0 1014.2 0.9 70
2019-05-29 09:00:00 19.4 15 Norte 22 Noroeste 0 1013.9 0.9 71
2019-05-29 08:00:00 18.8 10 Noroeste 21 Norte 0 1013.5 0.5 75
2019-05-29 07:00:00 18.4 12 Norte 21 Norte 0 1013.3 0.2 77
2019-05-29 06:00:00 18.4 15 Norte 23 Noroeste 0 1013 -0.3 77
2019-05-29 05:00:00 18.4 11 Noroeste 21 Noroeste 0 1013 -0.7 78
2019-05-29 04:00:00 18.3 10 Noroeste 23 Noroeste 0 1013.1 -1.1 78
2019-05-29 03:00:00 18.3 15 Norte 23 Norte 0 1013.3 -1.1 78
2019-05-29 02:00:00 18.5 13 Norte 20 Norte 0 1013.7 -0.7 78
2019-05-29 01:00:00 18.7 14 Norte 22 Norte 0 1014.2 0.2 79
2019-05-29 00:00:00 18.8 14 Norte 25 Norte 0 1014.4 0.7 79
2019-05-28 23:00:00 19 14 Norte 26 Norte 0 1014.4 1.2 79
2019-05-28 22:00:00 19.1 17 Norte 29 Norte 0 1014 1.2 77
2019-05-28 21:00:00 19.3 17 Norte 26 Norte 0 1013.7 0.9 77
2019-05-28 20:00:00 19.6 17 Norte 35 Norte 0 1013.2 0.4 76
2019-05-28 19:00:00 20.1 21 Norte 31 Norte 0 1012.8 -0.3 75
2019-05-28 18:00:00 21 21 Norte 32 Norte 0 1012.8 -0.6 71
2019-05-28 17:00:00 21.4 22 Norte 38 Norte 0 1012.8 -0.5 72
2019-05-28 16:00:00 22.3 25 Norte 36 Norte 0 1013.1 -0.1 65
2019-05-28 15:00:00 22.7 23 Norte 38 Norte 0 1013.4 0.2 64
2019-05-28 14:00:00 22.5 23 Nordeste 35 Nordeste 0 1013.3 -0.1 66
2019-05-28 13:00:00 22.7 27 Nordeste 39 Norte 0 1013.2 -0.1 64
2019-05-28 12:00:00 22.1 25 Nordeste 37 Nordeste 0 1013.2 0.3 66
2019-05-28 11:00:00 20.7 22 Norte 31 Norte 0 1013.4 0.8 72
2019-05-28 10:00:00 19.9 19 Norte 29 Norte 0 1013.3 1.1 77
2019-05-28 09:00:00 19.5 18 Norte 28 Norte 0 1012.9 1.2 79
2019-05-28 08:00:00 18.9 19 Norte 28 Norte 0 1012.6 1 82
2019-05-28 07:00:00 18.7 15 Norte 31 Norte 0 1012.2 0.9 83
2019-05-28 06:00:00 18.6 18 Norte 34 Nordeste 0 1011.7 0.3 83
2019-05-28 05:00:00 18.7 17 Norte 28 Norte 0 1011.6 -0.2 84
2019-05-28 04:00:00 18.7 18 Norte 33 Norte 0 1011.3 -0.8 83
2019-05-28 03:00:00 18.9 23 Norte 35 Norte 0 1011.4 -1.2 84
2019-05-28 02:00:00 19.1 22 Nordeste 35 Norte 0 1011.8 -0.8 82
2019-05-28 01:00:00 19.3 19 Norte 27 Norte 0 1012.1 -0.1 83
2019-05-28 00:00:00 19.4 14 Norte 22 Norte 0 1012.6 0.8 82
2019-05-27 23:00:00 19.5 16 Norte 22 Norte 0 1012.6 1.1 82
2019-05-27 22:00:00 19.8 12 Norte 23 Norte 0 1012.2 0.9 82
2019-05-27 21:00:00 20 13 Norte 27 Norte 0 1011.8 0.5 82
2019-05-27 20:00:00 20.5 19 Norte 29 Norte 0 1011.5 0.1 80
2019-05-27 19:00:00 21.4 18 Norte 30 Norte 0 1011.3 -0.2 75
2019-05-27 18:00:00 22.3 22 Norte 35 Norte 0 1011.3 -0.5 71
2019-05-27 17:00:00 23.8 22 Norte 35 Norte 0 1011.4 -0.5 66
2019-05-27 16:00:00 23.7 26 Norte 39 Norte 0 1011.5 -0.7 66
2019-05-27 15:00:00 23.7 24 Norte 39 Norte 0 1011.8 -0.3 67
2019-05-27 14:00:00 24.5 18 Norte 33 Norte 0 1011.9 0.1 65
2019-05-27 13:00:00 24.7 19 Norte 35 Norte 0 1012.2 0.6 61
2019-05-27 12:00:00 24.1 22 Norte 36 Norte 0 1012.1 0.5 62
2019-05-27 11:00:00 23.5 24 Norte 36 Norte 0 1011.8 0.6 61
2019-05-27 10:00:00 22.6 18 Norte 28 Norte 0 1011.6 0.6 66
2019-05-27 09:00:00 21 14 Norte 23 Norte 0 1011.6 0.7 75
2019-05-27 08:00:00 19 9 Norte 14 Norte 0 1011.2 0.1 87
2019-05-27 07:00:00 18.1 3 Nordeste 9 Este 0 1011 -0.3 88
2019-05-27 06:00:00 18 2 Sur 7 Sudoeste 0 1010.9 -0.6 90
2019-05-27 05:00:00 18.4 4 Sudoeste 10 Sudoeste 0 1011.1 -1.1 87
2019-05-27 04:00:00 18.4 3 Norte 14 Noroeste 0 1011.3 -1.5 87
2019-05-27 03:00:00 18.7 3 Sur 9 Sur 0 1011.5 -1.4 88
2019-05-27 02:00:00 19.1 2 Este 12 Noroeste 0 1012.2 -0.6 90
2019-05-27 01:00:00 19.2 4 Sudoeste 10 Oeste 0 1012.8 0.4 89
2019-05-27 00:00:00 19.2 4 Sudeste 14 Norte 0 1012.9 1 88
2019-05-26 23:00:00 19.2 5 Norte 11 Noroeste 0 1012.8 1.1 88
2019-05-26 22:00:00 19.5 6 Nordeste 23 Norte 0 1012.4 1 86
2019-05-26 21:00:00 19.8 16 Norte 27 Norte 0 1011.9 0.5 84
2019-05-26 20:00:00 20.7 19 Norte 37 Norte 0 1011.7 0 80
2019-05-26 19:00:00 22 22 Norte 39 Norte 0 1011.4 -0.7 74
2019-05-26 18:00:00 23.1 24 Norte 35 Norte 0 1011.4 -1.2 68
2019-05-26 17:00:00 23.5 24 Norte 33 Norte 0 1011.7 -1.4 67
2019-05-26 16:00:00 24.2 19 Norte 28 Norte 0 1012.1 -1.5 62
2019-05-26 15:00:00 23.9 15 Noroeste 29 Noroeste 0 1012.6 -0.8 64
2019-05-26 14:00:00 23.2 17 Noroeste 32 Norte 0 1013.1 -0.3 68
2019-05-26 13:00:00 22.7 17 Norte 28 Norte 0 1013.6 0.4 68
2019-05-26 12:00:00 22 19 Norte 31 Norte 0 1013.4 0.2 70
2019-05-26 11:00:00 20.9 22 Norte 31 Norte 0 1013.4 0.6 72
2019-05-26 10:00:00 20.6 18 Norte 27 Norte 0 1013.2 0.9 74
2019-05-26 09:00:00 19.8 14 Norte 25 Norte 0 1013.2 1 76
2019-05-26 08:00:00 19 14 Noroeste 21 Norte 0 1012.8 0.8 79
2019-05-26 07:00:00 18.4 7 Norte 16 Noroeste 0 1012.3 0.1 81
2019-05-26 06:00:00 18.4 10 Norte 17 Norte 0 1012.2 -0.2 81
2019-05-26 05:00:00 18.5 10 Norte 18 Norte 0 1012 -1 82
2019-05-26 04:00:00 18.4 13 Norte 24 Norte 0 1012.2 -1.3 80
2019-05-26 03:00:00 18.4 17 Norte 28 Norte 0 1012.4 -1.5 81
2019-05-26 02:00:00 18.8 17 Norte 29 Norte 0 1013 -0.9 79
2019-05-26 01:00:00 18.8 18 Norte 34 Norte 0 1013.5 -0.2 77
2019-05-26 00:00:00 19.3 21 Norte 35 Nordeste 0 1013.9 0.5 75
2019-05-25 23:00:00 19.4 21 Norte 37 Norte 0 1013.9 0.6 76
2019-05-25 22:00:00 19.6 21 Norte 34 Norte 0 1013.7 0.6 76
2019-05-25 21:00:00 19.5 21 Norte 33 Norte 0 1013.4 0.1 68
2019-05-25 20:00:00 20 23 Norte 39 Norte 0 1013.3 -0.2 66
2019-05-25 19:00:00 20.8 24 Noroeste 37 Norte 0 1013.1 -0.7 66
2019-05-25 18:00:00 22 26 Norte 38 Norte 0 1013.3 -0.5 59
2019-05-25 17:00:00 22.7 24 Norte 40 Noroeste 0 1013.5 -0.8 56
2019-05-25 16:00:00 22.8 21 Norte 40 Norte 0 1013.8 -1 56
2019-05-25 15:00:00 23.5 22 Norte 41 Norte 0 1013.8 -1.3 52
2019-05-25 14:00:00 23.2 27 Nordeste 43 Nordeste 0 1014.3 -0.7 57
2019-05-25 13:00:00 21.9 26 Norte 42 Nordeste 0 1014.8 0.2 63
2019-05-25 12:00:00 22.3 29 Nordeste 41 Norte 0 1015.1 0.8 61
2019-05-25 11:00:00 22.5 31 Nordeste 41 Nordeste 0 1015 0.9 62
2019-05-25 10:00:00 20.6 33 Norte 45 Nordeste 0 1014.6 0.7 68
2019-05-25 09:00:00 19.4 23 Norte 38 Norte 0 1014.3 0.9 75
2019-05-25 08:00:00 18.9 28 Norte 41 Norte 0 1014.1 0.7 77
2019-05-25 07:00:00 18.6 26 Norte 39 Nordeste 0 1013.9 0.4 78
2019-05-25 06:00:00 18.6 31 Norte 43 Nordeste 0 1013.4 -0.1 79
2019-05-25 05:00:00 18.7 30 Nordeste 46 Norte 0 1013.4 -0.4 81
2019-05-25 04:00:00 18.8 34 Nordeste 50 Norte 0 1013.5 -1.1 80
2019-05-25 03:00:00 18.5 35 Norte 51 Norte 0 1013.5 -1.2 82
2019-05-25 02:00:00 18.6 35 Norte 47 Nordeste 0 1013.8 -0.9 81
2019-05-25 01:00:00 18.4 30 Nordeste 49 Nordeste 0 1014.6 0.2 84
2019-05-25 00:00:00 18.5 32 Norte 44 Nordeste 0 1014.7 0.8 85
2019-05-24 23:00:00 18.6 29 Nordeste 41 Norte 0 1014.7 1.2 84
2019-05-24 22:00:00 18.5 28 Nordeste 46 Nordeste 0 1014.4 1.1 84
2019-05-24 21:00:00 18.8 32 Norte 45 Nordeste 0 1013.9 0.2 83
2019-05-24 20:00:00 19.6 33 Nordeste 47 Nordeste 0 1013.5 -0.4 79
2019-05-24 19:00:00 20.9 32 Norte 46 Nordeste 0 1013.3 -1 74
2019-05-24 18:00:00 21.5 33 Nordeste 46 Nordeste 0 1013.7 -0.6 72
2019-05-24 17:00:00 22.3 31 Norte 43 Norte 0 1013.9 -1.1 70
2019-05-24 16:00:00 23.2 30 Nordeste 50 Nordeste 0 1014.3 -1 65
2019-05-24 15:00:00 23.2 35 Norte 47 Nordeste 0 1014.3 -1 65
2019-05-24 14:00:00 23.3 31 Nordeste 46 Nordeste 0 1015 0 65
2019-05-24 13:00:00 22.9 30 Nordeste 47 Nordeste 0 1015.3 0.8 67
2019-05-24 12:00:00 22.5 34 Nordeste 46 Norte 0 1015.3 1.1 69
2019-05-24 11:00:00 22.2 33 Nordeste 48 Norte 0 1015 1.2 69
2019-05-24 10:00:00 21.2 35 Norte 49 Nordeste 0 1014.5 0.9 74
2019-05-24 09:00:00 20.4 32 Nordeste 46 Nordeste 0 1014.2 0.8 77
2019-05-24 08:00:00 19 30 Norte 45 Norte 0 1013.8 0 83
2019-05-24 07:00:00 18.3 30 Norte 44 Nordeste 0 1013.6 -0.3 87
2019-05-24 06:00:00 18.3 26 Norte 46 Norte 0 1013.4 -1 87
2019-05-24 05:00:00 18.5 26 Norte 36 Norte 0 1013.8 -0.8 87
2019-05-24 04:00:00 18.5 18 Norte 30 Norte 0 1013.9 -0.8 86
2019-05-24 03:00:00 18.5 17 Norte 28 Norte 0 1014.4 -0.3 86
2019-05-24 02:00:00 18.5 16 Norte 31 Norte 0 1014.6 -0.2 85
2019-05-24 01:00:00 18.3 18 Norte 26 Norte 0 1014.7 0.5 85
2019-05-24 00:00:00 18.3 14 Norte 28 Norte 0 1014.7 0.7 87
2019-05-23 23:00:00 18.6 22 Norte 39 Norte 0 1014.8 1.1 85
2019-05-23 22:00:00 18.5 22 Norte 44 Nordeste 0 1014.2 0.5 85
2019-05-23 21:00:00 18.8 28 Norte 47 Norte 0 1014 0.1 83
2019-05-23 20:00:00 19.5 31 Norte 47 Norte 0 1013.7 -0.5 78
2019-05-23 19:00:00 20.7 31 Norte 50 Norte 0 1013.7 -1 71
2019-05-23 18:00:00 21.6 29 Norte 47 Norte 0 1013.9 -0.6 68
2019-05-23 17:00:00 21.8 30 Norte 49 Nordeste 0 1014.2 -0.6 65
2019-05-23 16:00:00 21.7 30 Norte 45 Norte 0 1014.7 -0.5 65
2019-05-23 15:00:00 22.1 32 Nordeste 49 Norte 0 1014.5 -0.8 63
2019-05-23 14:00:00 22.6 37 Norte 48 Norte 0 1014.8 -0.3 59
2019-05-23 13:00:00 21.9 35 Nordeste -- -- 0 1015.2 0 63
2019-05-23 12:00:00 21.5 34 Norte 50 Norte -- 1015.3 0.7 62
2019-05-23 11:00:00 20.8 36 Norte 48 Norte -- 1015.1 1 67
2019-05-23 10:00:00 20 30 Norte 43 Nordeste 0 1015.2 1.3 69
2019-05-23 09:00:00 19.6 31 Nordeste 48 Nordeste 0 1014.6 0.9 68
2019-05-23 08:00:00 18.8 32 Nordeste 45 Nordeste 0 1014.1 0.1 72
2019-05-23 07:00:00 18.5 27 Nordeste 45 Nordeste 0 1013.9 -0.2 74
2019-05-23 06:00:00 18.4 25 Nordeste 41 Norte 0 1013.7 -0.8 72
2019-05-23 05:00:00 18.4 29 Norte 48 Nordeste 0 1014 -1 73
2019-05-23 04:00:00 18.4 30 Nordeste 45 Norte 0 1014.1 -1.2 71
2019-05-23 03:00:00 18.5 28 Norte 48 Norte 0 1014.5 -1 71
2019-05-23 02:00:00 18.5 33 Norte 51 Nordeste 0 1015 -0.7 69
2019-05-23 01:00:00 18.9 30 Norte 48 Norte 0 1015.3 0.2 71
2019-05-23 00:00:00 18.8 29 Nordeste 44 Norte 0 1015.5 0.8 73
2019-05-22 23:00:00 19.2 28 Norte 50 Norte 0 1015.7 1.1 71
2019-05-22 22:00:00 19.3 26 Norte 41 Norte 0 1015.1 0.8 74
2019-05-22 21:00:00 19.6 27 Norte 46 Norte 0 1014.7 0.4 71
2019-05-22 20:00:00 20 26 Norte 41 Nordeste 0 1014.6 0.3 67
2019-05-22 19:00:00 21.2 27 Norte 40 Norte 0 1014.3 -0.3 65
2019-05-22 18:00:00 21.8 27 Norte 41 Norte 0 1014.3 -0.4 64
2019-05-22 17:00:00 22.4 27 Norte 46 Norte 0 1014.3 -0.7 63
2019-05-22 16:00:00 21.9 27 Norte 43 Norte 0 1014.6 -0.6 68
2019-05-22 15:00:00 23.1 27 Norte 44 Nordeste 0 1014.7 -0.4 64
2019-05-22 14:00:00 23.3 26 Nordeste 44 Nordeste 0 1015 0 64
2019-05-22 13:00:00 21.8 26 Norte 44 Norte 0 1015.2 0.5 69
2019-05-22 12:00:00 22.5 31 Nordeste 43 Nordeste 0 1015.1 1.1 63
2019-05-22 11:00:00 20.9 29 Norte 42 Norte 0 1015 1.3 72
2019-05-22 10:00:00 21.1 31 Norte 46 Norte 0 1014.7 1.4 71
2019-05-22 09:00:00 19.7 33 Norte 48 Norte 0 1014 0.8 77
2019-05-22 08:00:00 19.4 29 Norte 44 Norte 0 1013.7 0.4 76
2019-05-22 07:00:00 19.1 27 Norte 41 Norte 0 1013.3 -0.3 76
2019-05-22 06:00:00 18.8 29 Norte 45 Norte 0 1013.2 -0.8 78
2019-05-22 05:00:00 19 24 Norte 41 Norte 0 1013.3 -1.3 80
2019-05-22 04:00:00 18.9 25 Norte 42 Norte 0 1013.6 -1.1 81
2019-05-22 03:00:00 18.8 29 Norte 43 Nordeste 0 1014 -0.8 78
2019-05-22 02:00:00 18.8 25 Norte 44 Norte 0 1014.6 -0.2 80
2019-05-22 01:00:00 18.8 28 Norte 44 Norte 0 1014.7 0.4 80
2019-05-22 00:00:00 19 28 Norte 40 Norte 0 1014.8 0.6 78
2019-05-21 23:00:00 19 24 Norte 39 Norte 0 1014.8 1.1 78
2019-05-21 22:00:00 18.8 23 Norte 42 Norte 0 1014.3 0.9 78
2019-05-21 21:00:00 19.1 26 Norte 38 Norte 0 1014.2 0.5 73
2019-05-21 20:00:00 19.8 24 Norte 40 Norte 0 1013.7 -0.1 74
2019-05-21 19:00:00 21 27 Norte 41 Nordeste 0 1013.4 -1 67
2019-05-21 18:00:00 22 26 Norte 42 Norte 0 1013.7 -0.8 62
2019-05-21 17:00:00 22.5 24 Norte 43 Nordeste 0 1013.8 -1 63
2019-05-21 16:00:00 23.3 22 Norte 42 Nordeste 0 1014.4 -0.6 58
2019-05-21 15:00:00 22.4 33 Nordeste 44 Nordeste 0 1014.5 -0.5 59
2019-05-21 14:00:00 22 27 Nordeste 40 Norte 0 1014.8 0.2 62
2019-05-21 13:00:00 21 27 Nordeste 39 Nordeste 0 1015 0.5 64
2019-05-21 12:00:00 21.1 28 Nordeste 41 Norte 0 1015 0.7 61
2019-05-21 11:00:00 20.6 27 Nordeste 40 Nordeste 0 1014.6 0.9 66
2019-05-21 10:00:00 19.8 28 Norte 41 Norte 0 1014.5 1.1 74
2019-05-21 09:00:00 19.1 28 Nordeste 43 Nordeste 0 1014.3 1 77
2019-05-21 08:00:00 18.6 24 Nordeste 43 Nordeste 0 1013.7 0.3 74
2019-05-21 07:00:00 18.3 25 Norte 39 Nordeste 0 1013.4 -0.5 80
2019-05-21 06:00:00 18.5 28 Norte 40 Norte 0 1013.3 -0.9 80
2019-05-21 05:00:00 18.7 30 Norte 43 Norte 0 1013.4 -1.4 77
2019-05-21 04:00:00 18.8 26 Norte 36 Norte 0 1013.9 -1.3 76
2019-05-21 03:00:00 18.8 23 Nordeste 36 Norte 0 1014.2 -1.4 79
2019-05-21 02:00:00 19.2 22 Norte 35 Norte 0 1014.8 -0.7 71
2019-05-21 01:00:00 19.1 22 Norte 38 Norte 0 1015.2 0.1 74
2019-05-21 00:00:00 19.1 19 Norte 31 Norte 0 1015.6 0.9 75
2019-05-20 23:00:00 18.7 19 Norte 34 Norte 0 1015.5 1.1 76
2019-05-20 22:00:00 19.4 15 Norte 33 Norte 0 1015.1 1 74
2019-05-20 21:00:00 19.4 20 Norte 33 Norte 0 1014.7 0.6 73
2019-05-20 20:00:00 20.6 21 Norte 34 Norte 0 1014.4 0.3 64
2019-05-20 19:00:00 20.8 24 Norte 38 Norte 0 1014.1 0 65
2019-05-20 18:00:00 21 26 Norte 39 Norte 0 1014.1 -0.3 61
2019-05-20 17:00:00 21.4 24 Norte 37 Nordeste 0 1014.1 -0.7 66
2019-05-20 16:00:00 22.5 23 Norte 40 Nordeste 0 1014.1 -1 61
2019-05-20 15:00:00 22.2 24 Norte 49 Norte 0 1014.4 -0.7 57
2019-05-20 14:00:00 22.9 30 Norte 44 Norte 0 1014.8 -0.1 55
2019-05-20 13:00:00 22.6 25 Norte 44 Norte 0 1015.1 0.6 61
2019-05-20 12:00:00 23 26 Norte 43 Nordeste 0 1015.1 1 58
2019-05-20 11:00:00 20.8 25 Norte 40 Norte 0 1014.9 1.2 66
2019-05-20 10:00:00 20.2 26 Norte 47 Norte 0 1014.5 1.1 67
2019-05-20 09:00:00 19.4 28 Norte 50 Norte 0 1014.1 1 74
2019-05-20 08:00:00 18.9 24 Norte 39 Norte 0 1013.7 0.7 82
2019-05-20 07:00:00 18.7 24 Norte 40 Norte 0 1013.4 0.3 80
2019-05-20 06:00:00 18.8 22 Norte 37 Noroeste 0 1013.1 -0.6 78
2019-05-20 05:00:00 18.8 20 Norte 31 Norte 0 1013 -1.2 76
2019-05-20 04:00:00 18.6 23 Norte 40 Norte 0 1013.1 -1.6 78
2019-05-20 03:00:00 18.3 18 Norte 35 Norte 0 1013.7 -0.8 81
2019-05-20 02:00:00 18.6 25 Norte 41 Norte 0 1014.2 0 75
2019-05-20 01:00:00 18.6 23 Norte 44 Nordeste 0 1014.7 0.9 75
2019-05-20 00:00:00 18.5 28 Norte 48 Norte 0 1014.5 0.9 75
2019-05-19 23:00:00 18.3 30 Norte 53 Norte 0 1014.2 0.6 76
2019-05-19 22:00:00 18.4 33 Norte 45 Norte 0 1013.8 0.1 77
2019-05-19 21:00:00 18.7 32 Norte 49 Norte 0 1013.6 0 75
2019-05-19 20:00:00 19.6 27 Norte 44 Norte 0 1013.6 -0.3 70
2019-05-19 19:00:00 20.7 30 Norte 44 Norte 0 1013.7 -0.5 64
2019-05-19 18:00:00 21.2 33 Norte 48 Nordeste 0 1013.6 -1.2 61
2019-05-19 17:00:00 21.8 35 Norte 51 Nordeste 0 1013.9 -1.3 58
2019-05-19 16:00:00 22.6 35 Nordeste 51 Nordeste 0 1014.2 -1 57
2019-05-19 15:00:00 22.6 37 Nordeste 51 Nordeste 0 1014.8 -0.5 54
2019-05-19 14:00:00 21.8 32 Nordeste 44 Nordeste 0 1015.2 -0.2 58
2019-05-19 13:00:00 22.1 34 Nordeste 49 Nordeste 0 1015.2 0.5 58
2019-05-19 12:00:00 20 30 Norte 41 Norte 0 1015.3 1.5 70
2019-05-19 11:00:00 20.3 31 Nordeste 41 Nordeste 0 1015.4 2.2 65
2019-05-19 10:00:00 19.3 30 Nordeste 44 Norte 0 1014.7 2.1 69
2019-05-19 09:00:00 18.8 33 Norte 45 Norte 0 1013.8 1.3 71
2019-05-19 08:00:00 18.4 29 Nordeste 44 Nordeste 0 1013.2 0.5 75
2019-05-19 07:00:00 18 30 Norte 47 Nordeste 0 1012.6 0 77
2019-05-19 06:00:00 18 32 Norte 45 Norte 0 1012.5 -0.4 77
2019-05-19 05:00:00 18.1 31 Norte 46 Norte 0 1012.7 -0.7 78
2019-05-19 04:00:00 18.2 31 Nordeste 48 Nordeste 0 1012.6 -1.3 77
2019-05-19 03:00:00 18.1 32 Nordeste 47 Norte 0 1012.9 -0.9 78
2019-05-19 02:00:00 18.3 35 Nordeste 48 Norte 0 1013.4 -0.1 78
2019-05-19 01:00:00 18.3 36 Nordeste 50 Nordeste 0 1013.9 0.9 78
2019-05-19 00:00:00 18 34 Nordeste 49 Nordeste 0 1013.8 1.2 80
2019-05-18 23:00:00 18.2 36 Nordeste 50 Nordeste 0 1013.5 0.9 79
2019-05-18 22:00:00 18.3 33 Nordeste 49 Nordeste 0 1013 0.7 80
2019-05-18 21:00:00 18.5 34 Nordeste 46 Nordeste 0 1012.6 0.4 77
2019-05-18 20:00:00 19.4 32 Nordeste 45 Nordeste 0 1012.6 0.4 73
2019-05-18 19:00:00 20.7 31 Nordeste 42 Nordeste 0 1012.3 -0.2 69
2019-05-18 18:00:00 21.1 32 Nordeste 44 Nordeste 0 1012.2 -0.5 66
2019-05-18 17:00:00 21.7 31 Nordeste 46 Nordeste 0 1012.2 -0.3 65
2019-05-18 16:00:00 22.1 37 Nordeste 54 Nordeste 0 1012.5 -0.7 62
2019-05-18 15:00:00 22.9 38 Nordeste 60 Nordeste 0 1012.7 -0.6 59
2019-05-18 14:00:00 22.3 44 Nordeste 59 Nordeste 0 1012.5 -0.7 61
2019-05-18 13:00:00 22.3 40 Nordeste 51 Nordeste 0 1013.2 0.3 62
2019-05-18 12:00:00 22.1 40 Nordeste -- -- 0 1013.3 1.2 62
2019-05-18 11:00:00 21 37 Nordeste -- -- 0 1013.2 1.8 64
2019-05-18 10:00:00 19.7 35 Nordeste 50 Nordeste 0 1012.9 1.5 70
2019-05-18 09:00:00 19.1 34 Nordeste 52 Nordeste 0 1012.1 0.8 74
2019-05-18 08:00:00 18.2 35 Nordeste 48 Nordeste 0 1011.4 0.1 77
2019-05-18 07:00:00 17.7 34 Nordeste 46 Nordeste 0 1011.4 -0.2 80
2019-05-18 06:00:00 17.8 32 Nordeste 45 Nordeste 0 1011.3 -0.5 80
2019-05-18 05:00:00 17.9 34 Nordeste 48 Nordeste 0 1011.3 -0.6 79
2019-05-18 04:00:00 18 32 Nordeste 45 Nordeste 0 1011.6 -1.6 79
2019-05-18 03:00:00 18.2 31 Nordeste 40 Nordeste 0 1011.8 -2.2 80
2019-05-18 02:00:00 18.2 31 Nordeste 40 Nordeste 0 1011.9 -1.1 81
2019-05-18 01:00:00 18.3 28 Nordeste 38 Nordeste 0 1013.2 0.6 80
2019-05-18 00:00:00 18.6 22 Nordeste 36 Nordeste 0 1014 2.4 81
2019-05-17 23:00:00 18.4 26 Nordeste -- -- 0 1013 2.4 83
2019-05-17 22:00:00 18.7 26 Nordeste 38 Nordeste 0 1012.6 0.9 81
2019-05-17 21:00:00 18.9 30 Nordeste 50 Nordeste 0 1011.6 0.5 81
2019-05-17 20:00:00 19.5 36 Nordeste 49 Nordeste 0 1010.6 0.1 78
2019-05-17 19:00:00 20.5 29 Norte 42 Nordeste 0 1011.7 -0.1 75
2019-05-17 18:00:00 21.7 32 Nordeste 46 Nordeste 0 1011.1 -0.1 70
2019-05-17 17:00:00 22.3 37 Nordeste 50 Nordeste 0 1010.5 -0.3 69
2019-05-17 16:00:00 21.2 39 Nordeste 54 Nordeste 0 1011.8 -1 73
2019-05-17 15:00:00 23.2 41 Nordeste 62 Nordeste 0 1011.2 -1.5 66
2019-05-17 14:00:00 23.2 51 Nordeste 62 Nordeste 0 1010.8 -1.4 66
2019-05-17 13:00:00 22.7 33 Nordeste 45 Nordeste 0 1012.8 0.8 67
2019-05-17 12:00:00 22.6 33 Nordeste 46 Nordeste 0 1012.7 1.6 69
2019-05-17 11:00:00 22.8 31 Nordeste 41 Nordeste 0 1012.2 2 70
2019-05-17 10:00:00 21.3 30 Nordeste 45 Nordeste 0 1012 2.5 76
2019-05-17 09:00:00 20.1 32 Nordeste -- -- 0 1011.1 1.5 83
2019-05-17 08:00:00 19 36 Nordeste -- -- 0 1010.2 1 89
2019-05-17 07:00:00 18.4 37 Nordeste 49 Nordeste 0 1009.5 0.3 91
2019-05-17 06:00:00 18.3 31 Nordeste 49 Nordeste 0 1009.6 0.2 91
2019-05-17 05:00:00 18.6 42 Nordeste 54 Nordeste 0 1009.2 -0.7 90
2019-05-17 04:00:00 18.7 37 Nordeste -- -- 0 1009.2 -1 91
2019-05-17 03:00:00 18.9 43 Nordeste 54 Nordeste 0 1009.4 -1 91
2019-05-17 02:00:00 19 41 Nordeste 53 Nordeste 0 1009.9 -0.1 92
2019-05-17 01:00:00 19.2 40 Nordeste 56 Nordeste 0 1010.2 0.5 90
2019-05-17 00:00:00 19.4 41 Nordeste 55 Nordeste 0 1010.4 1.2 91